sensor_id;sensor_type;location;lat;lon;timestamp;pressure;altitude;pressure_sealevel;temperature
68939;BMP180;59064;45.294;11.816;2023-11-19T00:01:53;102001.20;;;6.00
68939;BMP180;59064;45.294;11.816;2023-11-19T00:04:18;102006.60;;;6.00
68939;BMP180;59064;45.294;11.816;2023-11-19T00:06:44;101998.40;;;6.00
68939;BMP180;59064;45.294;11.816;2023-11-19T00:09:09;101980.80;;;5.94
68939;BMP180;59064;45.294;11.816;2023-11-19T00:11:35;101969.80;;;6.00
68939;BMP180;59064;45.294;11.816;2023-11-19T00:14:01;101966.60;;;5.94
68939;BMP180;59064;45.294;11.816;2023-11-19T00:16:26;101966.00;;;5.90
68939;BMP180;59064;45.294;11.816;2023-11-19T00:18:53;101967.20;;;5.90
68939;BMP180;59064;45.294;11.816;2023-11-19T00:21:18;101982.00;;;5.90
68939;BMP180;59064;45.294;11.816;2023-11-19T00:23:44;101989.20;;;5.94
68939;BMP180;59064;45.294;11.816;2023-11-19T00:26:09;101977.60;;;5.94
68939;BMP180;59064;45.294;11.816;2023-11-19T00:28:35;101952.40;;;5.90
68939;BMP180;59064;45.294;11.816;2023-11-19T00:31:04;101947.00;;;6.00
68939;BMP180;59064;45.294;11.816;2023-11-19T00:33:29;101949.80;;;6.00
68939;BMP180;59064;45.294;11.816;2023-11-19T00:35:56;101944.00;;;6.00
68939;BMP180;59064;45.294;11.816;2023-11-19T00:38:22;101947.00;;;6.00
68939;BMP180;59064;45.294;11.816;2023-11-19T00:40:47;101960.80;;;6.00
68939;BMP180;59064;45.294;11.816;2023-11-19T00:43:13;101971.20;;;6.00
68939;BMP180;59064;45.294;11.816;2023-11-19T00:45:38;101970.80;;;5.94
68939;BMP180;59064;45.294;11.816;2023-11-19T00:48:04;101968.80;;;5.80
68939;BMP180;59064;45.294;11.816;2023-11-19T00:50:34;101970.00;;;5.70
68939;BMP180;59064;45.294;11.816;2023-11-19T00:52:59;101962.40;;;5.60
68939;BMP180;59064;45.294;11.816;2023-11-19T00:55:24;101960.20;;;5.50
68939;BMP180;59064;45.294;11.816;2023-11-19T00:57:50;101950.80;;;5.40
68939;BMP180;59064;45.294;11.816;2023-11-19T01:00:15;101957.20;;;5.30
68939;BMP180;59064;45.294;11.816;2023-11-19T01:02:45;101963.00;;;5.30
68939;BMP180;59064;45.294;11.816;2023-11-19T01:05:11;101973.80;;;5.20
68939;BMP180;59064;45.294;11.816;2023-11-19T01:07:39;101972.40;;;5.26
68939;BMP180;59064;45.294;11.816;2023-11-19T01:10:05;101976.00;;;5.30
68939;BMP180;59064;45.294;11.816;2023-11-19T01:12:32;101968.80;;;5.30
68939;BMP180;59064;45.294;11.816;2023-11-19T01:14:58;101971.40;;;5.40
68939;BMP180;59064;45.294;11.816;2023-11-19T01:17:23;101982.00;;;5.44
68939;BMP180;59064;45.294;11.816;2023-11-19T01:19:48;101967.20;;;5.50
68939;BMP180;59064;45.294;11.816;2023-11-19T01:22:15;101957.20;;;5.60
68939;BMP180;59064;45.294;11.816;2023-11-19T01:24:40;101951.80;;;5.62
68939;BMP180;59064;45.294;11.816;2023-11-19T01:27:06;101949.00;;;5.70
68939;BMP180;59064;45.294;11.816;2023-11-19T01:29:32;101939.60;;;5.70
68939;BMP180;59064;45.294;11.816;2023-11-19T01:31:57;101940.20;;;5.74
68939;BMP180;59064;45.294;11.816;2023-11-19T01:34:22;101936.80;;;5.80
68939;BMP180;59064;45.294;11.816;2023-11-19T01:36:48;101932.00;;;5.80
68939;BMP180;59064;45.294;11.816;2023-11-19T01:39:15;101927.80;;;5.80
68939;BMP180;59064;45.294;11.816;2023-11-19T01:41:41;101920.20;;;5.84
68939;BMP180;59064;45.294;11.816;2023-11-19T01:44:06;101919.20;;;5.90
68939;BMP180;59064;45.294;11.816;2023-11-19T01:46:32;101915.20;;;5.90
68939;BMP180;59064;45.294;11.816;2023-11-19T01:49:00;101912.60;;;5.90
68939;BMP180;59064;45.294;11.816;2023-11-19T01:51:26;101900.00;;;5.90
68939;BMP180;59064;45.294;11.816;2023-11-19T01:53:52;101887.40;;;6.00
68939;BMP180;59064;45.294;11.816;2023-11-19T01:56:18;101886.60;;;6.00
68939;BMP180;59064;45.294;11.816;2023-11-19T01:58:45;101892.00;;;6.00
68939;BMP180;59064;45.294;11.816;2023-11-19T02:01:12;101899.80;;;6.00
68939;BMP180;59064;45.294;11.816;2023-11-19T02:03:38;101901.60;;;6.00
68939;BMP180;59064;45.294;11.816;2023-11-19T02:06:05;101905.00;;;6.00
68939;BMP180;59064;45.294;11.816;2023-11-19T02:08:30;101900.00;;;6.00
68939;BMP180;59064;45.294;11.816;2023-11-19T02:10:56;101891.00;;;6.00
68939;BMP180;59064;45.294;11.816;2023-11-19T02:13:22;101894.20;;;6.00
68939;BMP180;59064;45.294;11.816;2023-11-19T02:15:48;101883.40;;;6.08
68939;BMP180;59064;45.294;11.816;2023-11-19T02:18:21;101879.80;;;6.10
68939;BMP180;59064;45.294;11.816;2023-11-19T02:20:48;101880.80;;;6.10
68939;BMP180;59064;45.294;11.816;2023-11-19T02:23:14;101885.00;;;6.10
68939;BMP180;59064;45.294;11.816;2023-11-19T02:25:40;101882.80;;;6.10
68939;BMP180;59064;45.294;11.816;2023-11-19T02:28:07;101887.00;;;6.10
68939;BMP180;59064;45.294;11.816;2023-11-19T02:30:32;101872.60;;;6.08
68939;BMP180;59064;45.294;11.816;2023-11-19T02:32:59;101859.60;;;6.04
68939;BMP180;59064;45.294;11.816;2023-11-19T02:35:27;101864.20;;;6.00
68939;BMP180;59064;45.294;11.816;2023-11-19T02:37:56;101868.40;;;6.00
68939;BMP180;59064;45.294;11.816;2023-11-19T02:40:22;101846.80;;;6.00
68939;BMP180;59064;45.294;11.816;2023-11-19T02:42:50;101842.80;;;6.00
68939;BMP180;59064;45.294;11.816;2023-11-19T02:45:15;101848.60;;;6.00
68939;BMP180;59064;45.294;11.816;2023-11-19T02:47:41;101857.20;;;6.00
68939;BMP180;59064;45.294;11.816;2023-11-19T02:50:10;101854.00;;;5.90
68939;BMP180;59064;45.294;11.816;2023-11-19T02:52:42;101848.00;;;5.90
68939;BMP180;59064;45.294;11.816;2023-11-19T02:55:09;101847.60;;;5.90
68939;BMP180;59064;45.294;11.816;2023-11-19T02:57:35;101841.60;;;5.84
68939;BMP180;59064;45.294;11.816;2023-11-19T03:00:02;101837.40;;;5.80
68939;BMP180;59064;45.294;11.816;2023-11-19T03:02:39;101830.20;;;5.80
68939;BMP180;59064;45.294;11.816;2023-11-19T03:05:10;101827.60;;;5.80
68939;BMP180;59064;45.294;11.816;2023-11-19T03:07:37;101822.20;;;5.80
68939;BMP180;59064;45.294;11.816;2023-11-19T03:10:02;101820.80;;;5.80
68939;BMP180;59064;45.294;11.816;2023-11-19T03:12:31;101813.20;;;5.80
68939;BMP180;59064;45.294;11.816;2023-11-19T03:14:56;101815.40;;;5.78
68939;BMP180;59064;45.294;11.816;2023-11-19T03:17:22;101821.20;;;5.70
68939;BMP180;59064;45.294;11.816;2023-11-19T03:19:49;101824.20;;;5.70
68939;BMP180;59064;45.294;11.816;2023-11-19T03:22:15;101820.40;;;5.60
68939;BMP180;59064;45.294;11.816;2023-11-19T03:24:40;101809.60;;;5.52
68939;BMP180;59064;45.294;11.816;2023-11-19T03:27:06;101819.20;;;5.50
68939;BMP180;59064;45.294;11.816;2023-11-19T03:29:32;101825.20;;;5.50
68939;BMP180;59064;45.294;11.816;2023-11-19T03:31:57;101818.60;;;5.42
68939;BMP180;59064;45.294;11.816;2023-11-19T03:34:23;101814.80;;;5.40
68939;BMP180;59064;45.294;11.816;2023-11-19T03:36:48;101815.40;;;5.36
68939;BMP180;59064;45.294;11.816;2023-11-19T03:39:14;101808.20;;;5.30
68939;BMP180;59064;45.294;11.816;2023-11-19T03:41:39;101809.00;;;5.30
68939;BMP180;59064;45.294;11.816;2023-11-19T03:44:06;101807.80;;;5.22
68939;BMP180;59064;45.294;11.816;2023-11-19T03:46:31;101805.80;;;5.20
68939;BMP180;59064;45.294;11.816;2023-11-19T03:48:57;101807.40;;;5.26
68939;BMP180;59064;45.294;11.816;2023-11-19T03:51:22;101814.80;;;5.28
68939;BMP180;59064;45.294;11.816;2023-11-19T03:53:48;101812.00;;;5.28
68939;BMP180;59064;45.294;11.816;2023-11-19T03:56:13;101804.40;;;5.30
68939;BMP180;59064;45.294;11.816;2023-11-19T03:58:39;101793.40;;;5.26
68939;BMP180;59064;45.294;11.816;2023-11-19T04:01:05;101796.60;;;5.20
68939;BMP180;59064;45.294;11.816;2023-11-19T04:03:31;101781.20;;;5.20
68939;BMP180;59064;45.294;11.816;2023-11-19T04:05:58;101784.80;;;5.20
68939;BMP180;59064;45.294;11.816;2023-11-19T04:08:24;101797.40;;;5.20
68939;BMP180;59064;45.294;11.816;2023-11-19T04:10:49;101792.00;;;5.16
68939;BMP180;59064;45.294;11.816;2023-11-19T04:13:15;101796.60;;;5.10
68939;BMP180;59064;45.294;11.816;2023-11-19T04:15:41;101788.80;;;5.04
68939;BMP180;59064;45.294;11.816;2023-11-19T04:18:06;101785.00;;;5.00
68939;BMP180;59064;45.294;11.816;2023-11-19T04:20:32;101778.40;;;5.00
68939;BMP180;59064;45.294;11.816;2023-11-19T04:22:59;101777.80;;;4.90
68939;BMP180;59064;45.294;11.816;2023-11-19T04:25:26;101780.80;;;4.88
68939;BMP180;59064;45.294;11.816;2023-11-19T04:27:51;101773.40;;;4.80
68939;BMP180;59064;45.294;11.816;2023-11-19T04:30:17;101769.80;;;4.70
68939;BMP180;59064;45.294;11.816;2023-11-19T04:32:43;101775.40;;;4.60
68939;BMP180;59064;45.294;11.816;2023-11-19T04:35:09;101781.60;;;4.54
68939;BMP180;59064;45.294;11.816;2023-11-19T04:37:34;101775.80;;;4.50
68939;BMP180;59064;45.294;11.816;2023-11-19T04:40:00;101761.60;;;4.40
68939;BMP180;59064;45.294;11.816;2023-11-19T04:42:26;101765.40;;;4.30
68939;BMP180;59064;45.294;11.816;2023-11-19T04:44:51;101770.80;;;4.20
68939;BMP180;59064;45.294;11.816;2023-11-19T04:47:18;101766.00;;;4.10
68939;BMP180;59064;45.294;11.816;2023-11-19T04:49:43;101756.20;;;4.00
68939;BMP180;59064;45.294;11.816;2023-11-19T04:52:09;101757.20;;;4.00
68939;BMP180;59064;45.294;11.816;2023-11-19T04:54:34;101758.40;;;4.00
68939;BMP180;59064;45.294;11.816;2023-11-19T04:57:00;101761.60;;;4.00
68939;BMP180;59064;45.294;11.816;2023-11-19T04:59:25;101763.20;;;3.90
68939;BMP180;59064;45.294;11.816;2023-11-19T05:01:52;101765.00;;;3.90
68939;BMP180;59064;45.294;11.816;2023-11-19T05:04:18;101756.80;;;3.90
68939;BMP180;59064;45.294;11.816;2023-11-19T05:06:44;101750.40;;;3.86
68939;BMP180;59064;45.294;11.816;2023-11-19T05:09:10;101752.40;;;3.80
68939;BMP180;59064;45.294;11.816;2023-11-19T05:11:38;101758.20;;;3.80
68939;BMP180;59064;45.294;11.816;2023-11-19T05:14:04;101757.40;;;3.80
68939;BMP180;59064;45.294;11.816;2023-11-19T05:16:30;101755.60;;;3.70
68939;BMP180;59064;45.294;11.816;2023-11-19T05:18:56;101757.80;;;3.70
68939;BMP180;59064;45.294;11.816;2023-11-19T05:21:21;101758.80;;;3.70
68939;BMP180;59064;45.294;11.816;2023-11-19T05:23:47;101758.60;;;3.70
68939;BMP180;59064;45.294;11.816;2023-11-19T05:26:20;101758.20;;;3.70
68939;BMP180;59064;45.294;11.816;2023-11-19T05:28:47;101756.40;;;3.70
68939;BMP180;59064;45.294;11.816;2023-11-19T05:31:13;101752.80;;;3.70
68939;BMP180;59064;45.294;11.816;2023-11-19T05:33:38;101753.20;;;3.70
68939;BMP180;59064;45.294;11.816;2023-11-19T05:36:05;101744.20;;;3.70
68939;BMP180;59064;45.294;11.816;2023-11-19T05:38:30;101748.80;;;3.70
68939;BMP180;59064;45.294;11.816;2023-11-19T05:40:56;101753.00;;;3.70
68939;BMP180;59064;45.294;11.816;2023-11-19T05:43:22;101749.00;;;3.70
68939;BMP180;59064;45.294;11.816;2023-11-19T05:45:47;101741.80;;;3.66
68939;BMP180;59064;45.294;11.816;2023-11-19T05:48:13;101742.40;;;3.60
68939;BMP180;59064;45.294;11.816;2023-11-19T05:50:39;101749.00;;;3.60
68939;BMP180;59064;45.294;11.816;2023-11-19T05:53:04;101741.60;;;3.60
68939;BMP180;59064;45.294;11.816;2023-11-19T05:55:38;101741.40;;;3.56
68939;BMP180;59064;45.294;11.816;2023-11-19T05:58:11;101739.00;;;3.50
68939;BMP180;59064;45.294;11.816;2023-11-19T06:00:40;101732.80;;;3.40
68939;BMP180;59064;45.294;11.816;2023-11-19T06:03:07;101735.00;;;3.40
68939;BMP180;59064;45.294;11.816;2023-11-19T06:05:32;101737.00;;;3.40
68939;BMP180;59064;45.294;11.816;2023-11-19T06:07:58;101741.00;;;3.40
68939;BMP180;59064;45.294;11.816;2023-11-19T06:10:23;101740.40;;;3.40
68939;BMP180;59064;45.294;11.816;2023-11-19T06:12:57;101732.20;;;3.40
68939;BMP180;59064;45.294;11.816;2023-11-19T06:15:24;101733.20;;;3.40
68939;BMP180;59064;45.294;11.816;2023-11-19T06:17:50;101737.40;;;3.40
68939;BMP180;59064;45.294;11.816;2023-11-19T06:20:15;101736.80;;;3.40
68939;BMP180;59064;45.294;11.816;2023-11-19T06:22:42;101725.00;;;3.40
68939;BMP180;59064;45.294;11.816;2023-11-19T06:25:09;101723.80;;;3.40
68939;BMP180;59064;45.294;11.816;2023-11-19T06:27:36;101724.00;;;3.40
68939;BMP180;59064;45.294;11.816;2023-11-19T06:30:02;101723.80;;;3.40
68939;BMP180;59064;45.294;11.816;2023-11-19T06:32:27;101718.40;;;3.40
68939;BMP180;59064;45.294;11.816;2023-11-19T06:34:54;101717.40;;;3.40
68939;BMP180;59064;45.294;11.816;2023-11-19T06:37:19;101711.60;;;3.32
68939;BMP180;59064;45.294;11.816;2023-11-19T06:39:45;101713.20;;;3.30
68939;BMP180;59064;45.294;11.816;2023-11-19T06:42:10;101713.80;;;3.30
68939;BMP180;59064;45.294;11.816;2023-11-19T06:44:36;101715.60;;;3.22
68939;BMP180;59064;45.294;11.816;2023-11-19T06:47:01;101716.20;;;3.20
68939;BMP180;59064;45.294;11.816;2023-11-19T06:49:27;101718.60;;;3.20
68939;BMP180;59064;45.294;11.816;2023-11-19T06:51:52;101721.00;;;3.20
68939;BMP180;59064;45.294;11.816;2023-11-19T06:54:18;101727.20;;;3.20
68939;BMP180;59064;45.294;11.816;2023-11-19T06:56:43;101736.60;;;3.20
68939;BMP180;59064;45.294;11.816;2023-11-19T06:59:09;101736.40;;;3.20
68939;BMP180;59064;45.294;11.816;2023-11-19T07:01:35;101731.00;;;3.30
68939;BMP180;59064;45.294;11.816;2023-11-19T07:04:01;101728.00;;;3.30
68939;BMP180;59064;45.294;11.816;2023-11-19T07:06:33;101731.60;;;3.30
68939;BMP180;59064;45.294;11.816;2023-11-19T07:08:59;101729.00;;;3.40
68939;BMP180;59064;45.294;11.816;2023-11-19T07:11:24;101730.40;;;3.52
68939;BMP180;59064;45.294;11.816;2023-11-19T07:13:50;101739.80;;;3.72
68939;BMP180;59064;45.294;11.816;2023-11-19T07:16:18;101737.80;;;3.92
68939;BMP180;59064;45.294;11.816;2023-11-19T07:18:43;101744.40;;;4.18
68939;BMP180;59064;45.294;11.816;2023-11-19T07:24:31;101765.80;;;4.62
68939;BMP180;59064;45.294;11.816;2023-11-19T07:26:57;101776.20;;;4.70
68939;BMP180;59064;45.294;11.816;2023-11-19T07:29:22;101782.40;;;4.80
68939;BMP180;59064;45.294;11.816;2023-11-19T07:31:51;101784.20;;;4.80
68939;BMP180;59064;45.294;11.816;2023-11-19T07:34:16;101788.80;;;4.90
68939;BMP180;59064;45.294;11.816;2023-11-19T07:36:42;101802.40;;;5.00
68939;BMP180;59064;45.294;11.816;2023-11-19T07:39:07;101808.20;;;5.10
68939;BMP180;59064;45.294;11.816;2023-11-19T07:41:34;101810.20;;;5.28
68939;BMP180;59064;45.294;11.816;2023-11-19T07:44:00;101805.40;;;5.42
68939;BMP180;59064;45.294;11.816;2023-11-19T07:46:26;101800.20;;;5.60
68939;BMP180;59064;45.294;11.816;2023-11-19T07:48:52;101797.60;;;5.80
68939;BMP180;59064;45.294;11.816;2023-11-19T07:51:18;101800.00;;;6.02
68939;BMP180;59064;45.294;11.816;2023-11-19T07:53:43;101805.60;;;6.30
68939;BMP180;59064;45.294;11.816;2023-11-19T07:56:09;101795.20;;;6.50
68939;BMP180;59064;45.294;11.816;2023-11-19T07:58:35;101801.80;;;6.70
68939;BMP180;59064;45.294;11.816;2023-11-19T08:01:02;101802.20;;;6.90
68939;BMP180;59064;45.294;11.816;2023-11-19T08:03:28;101802.80;;;7.06
68939;BMP180;59064;45.294;11.816;2023-11-19T08:05:57;101794.80;;;7.26
68939;BMP180;59064;45.294;11.816;2023-11-19T08:08:23;101791.60;;;7.44
68939;BMP180;59064;45.294;11.816;2023-11-19T08:10:49;101794.80;;;7.60
68939;BMP180;59064;45.294;11.816;2023-11-19T08:13:18;101790.00;;;7.80
68939;BMP180;59064;45.294;11.816;2023-11-19T08:15:43;101790.40;;;7.96
68939;BMP180;59064;45.294;11.816;2023-11-19T08:18:10;101787.60;;;8.10
68939;BMP180;59064;45.294;11.816;2023-11-19T08:20:35;101790.20;;;8.20
68939;BMP180;59064;45.294;11.816;2023-11-19T08:23:02;101795.40;;;8.30
68939;BMP180;59064;45.294;11.816;2023-11-19T08:25:29;101798.20;;;8.40
68939;BMP180;59064;45.294;11.816;2023-11-19T08:27:55;101796.20;;;8.50
68939;BMP180;59064;45.294;11.816;2023-11-19T08:30:20;101801.80;;;8.60
68939;BMP180;59064;45.294;11.816;2023-11-19T08:32:46;101807.60;;;8.70
68939;BMP180;59064;45.294;11.816;2023-11-19T08:35:12;101811.80;;;8.70
68939;BMP180;59064;45.294;11.816;2023-11-19T08:37:37;101815.60;;;8.80
68939;BMP180;59064;45.294;11.816;2023-11-19T08:40:04;101813.00;;;8.90
68939;BMP180;59064;45.294;11.816;2023-11-19T08:42:30;101814.60;;;9.00
68939;BMP180;59064;45.294;11.816;2023-11-19T08:44:55;101808.80;;;9.16
68939;BMP180;59064;45.294;11.816;2023-11-19T08:47:21;101808.00;;;9.30
68939;BMP180;59064;45.294;11.816;2023-11-19T08:49:50;101812.20;;;9.40
68939;BMP180;59064;45.294;11.816;2023-11-19T08:52:17;101814.80;;;9.50
68939;BMP180;59064;45.294;11.816;2023-11-19T08:54:43;101809.00;;;9.70
68939;BMP180;59064;45.294;11.816;2023-11-19T08:57:09;101805.80;;;9.90
68939;BMP180;59064;45.294;11.816;2023-11-19T08:59:35;101804.40;;;10.08
68939;BMP180;59064;45.294;11.816;2023-11-19T09:02:00;101807.40;;;10.20
68939;BMP180;59064;45.294;11.816;2023-11-19T09:04:27;101819.00;;;10.38
68939;BMP180;59064;45.294;11.816;2023-11-19T09:06:52;101824.20;;;10.46
68939;BMP180;59064;45.294;11.816;2023-11-19T09:09:18;101821.60;;;10.50
68939;BMP180;59064;45.294;11.816;2023-11-19T09:11:43;101816.00;;;10.60
68939;BMP180;59064;45.294;11.816;2023-11-19T09:14:09;101821.80;;;10.60
68939;BMP180;59064;45.294;11.816;2023-11-19T09:16:35;101818.00;;;10.78
68939;BMP180;59064;45.294;11.816;2023-11-19T09:19:00;101812.00;;;10.90
68939;BMP180;59064;45.294;11.816;2023-11-19T09:21:27;101816.20;;;11.00
68939;BMP180;59064;45.294;11.816;2023-11-19T09:23:55;101815.00;;;11.14
68939;BMP180;59064;45.294;11.816;2023-11-19T09:26:20;101818.20;;;11.20
68939;BMP180;59064;45.294;11.816;2023-11-19T09:28:46;101811.40;;;11.32
68939;BMP180;59064;45.294;11.816;2023-11-19T09:31:16;101811.40;;;11.40
68939;BMP180;59064;45.294;11.816;2023-11-19T09:33:42;101817.00;;;11.50
68939;BMP180;59064;45.294;11.816;2023-11-19T09:36:08;101802.40;;;11.50
68939;BMP180;59064;45.294;11.816;2023-11-19T09:38:34;101804.00;;;11.50
68939;BMP180;59064;45.294;11.816;2023-11-19T09:41:06;101795.20;;;11.50
68939;BMP180;59064;45.294;11.816;2023-11-19T09:43:36;101793.80;;;11.62
68939;BMP180;59064;45.294;11.816;2023-11-19T09:46:05;101793.20;;;11.70
68939;BMP180;59064;45.294;11.816;2023-11-19T09:48:38;101788.00;;;11.60
68939;BMP180;59064;45.294;11.816;2023-11-19T09:51:09;101789.60;;;11.60
68939;BMP180;59064;45.294;11.816;2023-11-19T09:53:36;101787.20;;;11.70
68939;BMP180;59064;45.294;11.816;2023-11-19T09:56:06;101781.20;;;11.80
68939;BMP180;59064;45.294;11.816;2023-11-19T09:58:33;101776.60;;;11.90
68939;BMP180;59064;45.294;11.816;2023-11-19T10:01:00;101769.20;;;11.80
68939;BMP180;59064;45.294;11.816;2023-11-19T10:03:35;101763.40;;;11.80
68939;BMP180;59064;45.294;11.816;2023-11-19T10:06:08;101761.20;;;11.80
68939;BMP180;59064;45.294;11.816;2023-11-19T10:08:37;101756.60;;;11.74
68939;BMP180;59064;45.294;11.816;2023-11-19T10:11:03;101752.20;;;11.70
68939;BMP180;59064;45.294;11.816;2023-11-19T10:13:29;101748.00;;;11.60
68939;BMP180;59064;45.294;11.816;2023-11-19T10:15:56;101749.80;;;11.62
68939;BMP180;59064;45.294;11.816;2023-11-19T10:18:26;101747.40;;;11.74
68939;BMP180;59064;45.294;11.816;2023-11-19T10:20:52;101744.80;;;11.90
68939;BMP180;59064;45.294;11.816;2023-11-19T10:23:21;101743.60;;;12.20
68939;BMP180;59064;45.294;11.816;2023-11-19T10:25:46;101741.60;;;12.40
68939;BMP180;59064;45.294;11.816;2023-11-19T10:28:15;101740.60;;;12.50
68939;BMP180;59064;45.294;11.816;2023-11-19T10:30:42;101736.60;;;12.50
68939;BMP180;59064;45.294;11.816;2023-11-19T10:33:12;101731.60;;;12.60
68939;BMP180;59064;45.294;11.816;2023-11-19T10:35:56;101726.60;;;12.80
68939;BMP180;59064;45.294;11.816;2023-11-19T10:38:23;101728.80;;;13.12
68939;BMP180;59064;45.294;11.816;2023-11-19T10:40:50;101721.20;;;13.42
68939;BMP180;59064;45.294;11.816;2023-11-19T10:43:17;101710.80;;;13.70
68939;BMP180;59064;45.294;11.816;2023-11-19T10:45:43;101702.40;;;13.80
68939;BMP180;59064;45.294;11.816;2023-11-19T10:48:17;101699.20;;;13.88
68939;BMP180;59064;45.294;11.816;2023-11-19T10:50:44;101697.00;;;13.98
68939;BMP180;59064;45.294;11.816;2023-11-19T10:53:12;101706.80;;;14.18
68939;BMP180;59064;45.294;11.816;2023-11-19T10:55:41;101703.80;;;14.40
68939;BMP180;59064;45.294;11.816;2023-11-19T10:58:09;101706.40;;;14.62
68939;BMP180;59064;45.294;11.816;2023-11-19T11:03:20;101711.20;;;15.10
68939;BMP180;59064;45.294;11.816;2023-11-19T11:05:52;101708.40;;;15.30
68939;BMP180;59064;45.294;11.816;2023-11-19T11:08:19;101710.40;;;15.48
68939;BMP180;59064;45.294;11.816;2023-11-19T11:10:52;101706.80;;;15.50
68939;BMP180;59064;45.294;11.816;2023-11-19T11:13:18;101695.20;;;15.50
68939;BMP180;59064;45.294;11.816;2023-11-19T11:15:47;101687.40;;;15.50
68939;BMP180;59064;45.294;11.816;2023-11-19T11:18:13;101683.00;;;15.40
68939;BMP180;59064;45.294;11.816;2023-11-19T11:20:40;101678.00;;;15.20
68939;BMP180;59064;45.294;11.816;2023-11-19T11:26:43;101688.40;;;15.30
68939;BMP180;59064;45.294;11.816;2023-11-19T11:39:49;101678.60;;;15.40
68939;BMP180;59064;45.294;11.816;2023-11-19T11:50:19;101670.80;;;16.10
68939;BMP180;59064;45.294;11.816;2023-11-19T11:55:36;101671.60;;;16.70
68939;BMP180;59064;45.294;11.816;2023-11-19T11:58:03;101666.20;;;16.62
68939;BMP180;59064;45.294;11.816;2023-11-19T12:00:32;101662.60;;;16.50
68939;BMP180;59064;45.294;11.816;2023-11-19T12:03:02;101656.20;;;16.40
68939;BMP180;59064;45.294;11.816;2023-11-19T12:05:29;101666.60;;;16.30
68939;BMP180;59064;45.294;11.816;2023-11-19T12:08:05;101669.00;;;16.46
68939;BMP180;59064;45.294;11.816;2023-11-19T12:10:46;101676.40;;;16.70
68939;BMP180;59064;45.294;11.816;2023-11-19T12:13:15;101674.20;;;16.70
68939;BMP180;59064;45.294;11.816;2023-11-19T12:18:23;101678.80;;;17.00
68939;BMP180;59064;45.294;11.816;2023-11-19T12:20:49;101673.00;;;17.10
68939;BMP180;59064;45.294;11.816;2023-11-19T12:23:15;101665.80;;;17.28
68939;BMP180;59064;45.294;11.816;2023-11-19T12:25:41;101664.60;;;17.50
68939;BMP180;59064;45.294;11.816;2023-11-19T12:28:11;101666.00;;;17.40
68939;BMP180;59064;45.294;11.816;2023-11-19T12:30:37;101656.40;;;17.20
68939;BMP180;59064;45.294;11.816;2023-11-19T12:33:08;101655.80;;;17.00
68939;BMP180;59064;45.294;11.816;2023-11-19T12:35:42;101656.60;;;16.62
68939;BMP180;59064;45.294;11.816;2023-11-19T12:38:18;101651.20;;;16.50
68939;BMP180;59064;45.294;11.816;2023-11-19T12:40:43;101648.00;;;16.70
68939;BMP180;59064;45.294;11.816;2023-11-19T12:43:09;101653.80;;;16.80
68939;BMP180;59064;45.294;11.816;2023-11-19T12:45:36;101658.20;;;16.98
68939;BMP180;59064;45.294;11.816;2023-11-19T12:48:06;101652.60;;;17.10
68939;BMP180;59064;45.294;11.816;2023-11-19T12:50:54;101639.80;;;16.90
68939;BMP180;59064;45.294;11.816;2023-11-19T12:53:22;101629.60;;;16.90
68939;BMP180;59064;45.294;11.816;2023-11-19T12:55:48;101626.40;;;16.80
68939;BMP180;59064;45.294;11.816;2023-11-19T12:58:32;101618.80;;;16.70
68939;BMP180;59064;45.294;11.816;2023-11-19T13:00:59;101629.20;;;16.50
68939;BMP180;59064;45.294;11.816;2023-11-19T13:03:29;101627.40;;;16.60
68939;BMP180;59064;45.294;11.816;2023-11-19T13:06:10;101622.80;;;16.76
68939;BMP180;59064;45.294;11.816;2023-11-19T15:32:24;101575.80;;;14.00
68939;BMP180;59064;45.294;11.816;2023-11-19T15:34:49;101582.00;;;13.76
68939;BMP180;59064;45.294;11.816;2023-11-19T21:44:04;101572.20;;;5.60
68939;BMP180;59064;45.294;11.816;2023-11-19T21:50:50;101562.40;;;5.70
68939;BMP180;59064;45.294;11.816;2023-11-19T21:58:17;101570.00;;;5.80
68939;BMP180;59064;45.294;11.816;2023-11-19T22:07:43;101569.80;;;5.80
68939;BMP180;59064;45.294;11.816;2023-11-19T22:10:55;101579.60;;;5.80
68939;BMP180;59064;45.294;11.816;2023-11-19T22:29:55;101585.00;;;5.80
68939;BMP180;59064;45.294;11.816;2023-11-19T22:43:04;101560.20;;;5.50
68939;BMP180;59064;45.294;11.816;2023-11-19T22:52:14;101571.40;;;5.40
68939;BMP180;59064;45.294;11.816;2023-11-19T22:58:35;101571.00;;;5.30
68939;BMP180;59064;45.294;11.816;2023-11-19T23:01:47;101565.40;;;5.20
68939;BMP180;59064;45.294;11.816;2023-11-19T23:05:15;101560.80;;;5.10
68939;BMP180;59064;45.294;11.816;2023-11-19T23:22:33;101560.40;;;4.80
68939;BMP180;59064;45.294;11.816;2023-11-19T23:29:02;101567.60;;;4.70
68939;BMP180;59064;45.294;11.816;2023-11-19T23:39:22;101553.60;;;4.70
68939;BMP180;59064;45.294;11.816;2023-11-19T23:52:46;101541.80;;;4.60
